Time;durP1;ratioP1;P1;durP2;ratioP2;P2;SDS_P1;SDS_P2;PMS_P1;PMS_P2;Temp;Humidity;BMP_temperature;BMP_pressure;BME280_temperature;BME280_humidity;BME280_pressure;Samples;Min_cycle;Max_cycle;Signal;HPM_P1;HPM_P2
2023/12/27 00:01:06;;;;;;;1.15;1.00;;;;;;;;;;5057781;28;20569;-64
2023/12/27 00:03:34;;;;;;;1.42;1.02;;;;;;;;;;5058228;28;20274;-64
2023/12/27 00:06:01;;;;;;;2.13;1.00;;;;;;;;;;5057694;28;20270;-64
2023/12/27 00:08:28;;;;;;;2.53;1.20;;;;;;;;;;5057909;28;20205;-64
2023/12/27 00:10:56;;;;;;;2.30;1.25;;;;;;;;;;5058262;28;20205;-64
2023/12/27 00:13:23;;;;;;;1.90;1.10;;;;;;;;;;5058051;28;20240;-64
2023/12/27 00:15:52;;;;;;;1.55;1.20;;;;;;;;;;5057967;28;20205;-65
2023/12/27 00:18:20;;;;;;;1.27;1.17;;;;;;;;;;5057841;28;20221;-64
2023/12/27 00:20:47;;;;;;;2.25;1.40;;;;;;;;;;5058230;28;20209;-64
2023/12/27 00:23:15;;;;;;;2.85;1.08;;;;;;;;;;5057907;28;20200;-64
2023/12/27 00:25:43;;;;;;;1.10;1.00;;;;;;;;;;5058067;28;20260;-64
2023/12/27 00:28:10;;;;;;;1.33;1.08;;;;;;;;;;5057827;28;20621;-64
2023/12/27 00:30:38;;;;;;;0.98;0.90;;;;;;;;;;5057789;28;20211;-64
2023/12/27 00:33:07;;;;;;;1.88;1.27;;;;;;;;;;5057523;28;20228;-65
2023/12/27 00:35:34;;;;;;;1.20;0.98;;;;;;;;;;5057910;28;20204;-66
2023/12/27 00:38:01;;;;;;;1.60;1.23;;;;;;;;;;5057561;28;20205;-67
2023/12/27 00:40:29;;;;;;;2.05;1.00;;;;;;;;;;5057604;28;20215;-66
2023/12/27 00:42:56;;;;;;;1.60;1.02;;;;;;;;;;5057498;28;20296;-66
2023/12/27 00:45:24;;;;;;;2.72;1.00;;;;;;;;;;5057588;28;20267;-66
2023/12/27 00:47:51;;;;;;;1.58;0.93;;;;;;;;;;5057273;28;20367;-66
2023/12/27 00:50:21;;;;;;;1.58;1.13;;;;;;;;;;5057022;28;20586;-66
2023/12/27 00:52:48;;;;;;;1.67;1.00;;;;;;;;;;5056844;28;20236;-66
2023/12/27 00:55:16;;;;;;;2.72;1.20;;;;;;;;;;5057431;28;20579;-66
2023/12/27 00:57:43;;;;;;;1.52;1.02;;;;;;;;;;5057300;28;20212;-66
2023/12/27 01:00:11;;;;;;;2.50;1.05;;;;;;;;;;5057273;28;20236;-66
2023/12/27 01:02:38;;;;;;;2.28;1.15;;;;;;;;;;5057273;28;20209;-66
2023/12/27 01:05:06;;;;;;;2.75;1.05;;;;;;;;;;5056976;28;20299;-66
2023/12/27 01:07:35;;;;;;;2.53;1.10;;;;;;;;;;5056858;28;20547;-66
2023/12/27 01:10:03;;;;;;;1.20;0.93;;;;;;;;;;5056500;28;20240;-67
2023/12/27 01:12:30;;;;;;;1.48;1.00;;;;;;;;;;5059273;28;20235;-67
2023/12/27 01:14:57;;;;;;;1.00;0.90;;;;;;;;;;5060729;28;20230;-67
2023/12/27 01:17:25;;;;;;;1.20;1.10;;;;;;;;;;5061059;28;20213;-67
2023/12/27 01:19:53;;;;;;;3.30;1.23;;;;;;;;;;5060616;28;20575;-66
2023/12/27 01:22:20;;;;;;;1.15;1.00;;;;;;;;;;5060986;28;20240;-67
2023/12/27 01:24:49;;;;;;;1.00;0.70;;;;;;;;;;5060373;28;20215;-68
2023/12/27 01:27:17;;;;;;;1.55;1.10;;;;;;;;;;5060832;28;20295;-66
2023/12/27 01:29:44;;;;;;;1.38;1.00;;;;;;;;;;5060465;28;20320;-66
2023/12/27 01:32:11;;;;;;;0.80;0.80;;;;;;;;;;5060886;28;20205;-66
2023/12/27 01:34:39;;;;;;;2.63;1.05;;;;;;;;;;5060355;28;20295;-66
2023/12/27 01:37:07;;;;;;;1.15;1.00;;;;;;;;;;5060619;28;20205;-67
2023/12/27 01:39:35;;;;;;;2.08;0.90;;;;;;;;;;5060834;28;20212;-66
2023/12/27 01:42:04;;;;;;;2.03;1.20;;;;;;;;;;5060764;28;20244;-66
2023/12/27 01:44:31;;;;;;;1.02;0.90;;;;;;;;;;5060919;28;20201;-67
2023/12/27 01:46:59;;;;;;;0.80;0.80;;;;;;;;;;5060745;28;20216;-66
2023/12/27 01:49:27;;;;;;;1.20;1.05;;;;;;;;;;5060722;28;20603;-66
2023/12/27 01:51:54;;;;;;;1.70;0.90;;;;;;;;;;5060608;28;20216;-66
2023/12/27 01:54:22;;;;;;;1.20;0.80;;;;;;;;;;5060372;28;20229;-66
2023/12/27 01:56:51;;;;;;;1.05;0.80;;;;;;;;;;5060742;28;20209;-66
2023/12/27 01:59:20;;;;;;;1.67;1.00;;;;;;;;;;5060042;28;20513;-66
2023/12/27 02:01:47;;;;;;;1.10;1.00;;;;;;;;;;5060617;28;20384;-66
2023/12/27 02:04:15;;;;;;;0.98;0.90;;;;;;;;;;5060239;28;20283;-67
2023/12/27 02:06:43;;;;;;;1.00;0.90;;;;;;;;;;5060803;28;20208;-66
2023/12/27 02:09:10;;;;;;;0.85;0.85;;;;;;;;;;5060919;28;20208;-66
2023/12/27 02:11:38;;;;;;;1.75;1.02;;;;;;;;;;5060782;28;20469;-66
2023/12/27 02:14:07;;;;;;;1.15;0.90;;;;;;;;;;5060921;28;20310;-68
2023/12/27 02:16:36;;;;;;;0.80;0.80;;;;;;;;;;5060570;28;20215;-66
2023/12/27 02:19:06;;;;;;;1.20;1.10;;;;;;;;;;5060722;28;20507;-67
2023/12/27 02:21:36;;;;;;;0.80;0.80;;;;;;;;;;5060687;28;20208;-66
2023/12/27 02:24:05;;;;;;;1.00;0.75;;;;;;;;;;5059640;28;20630;-66
2023/12/27 02:26:33;;;;;;;0.98;0.90;;;;;;;;;;5060391;28;20205;-67
2023/12/27 02:29:01;;;;;;;1.00;0.88;;;;;;;;;;5060443;28;20209;-67
2023/12/27 02:31:28;;;;;;;1.27;0.95;;;;;;;;;;5060065;28;20240;-66
2023/12/27 02:33:56;;;;;;;1.08;0.90;;;;;;;;;;5060277;28;20511;-66
2023/12/27 02:36:23;;;;;;;1.30;1.08;;;;;;;;;;5059919;28;20271;-66
2023/12/27 02:38:51;;;;;;;1.17;1.08;;;;;;;;;;5059739;28;20205;-66
2023/12/27 02:41:18;;;;;;;1.38;1.00;;;;;;;;;;5060246;28;20207;-66
2023/12/27 02:43:47;;;;;;;1.27;0.93;;;;;;;;;;5059532;28;20201;-66
2023/12/27 02:46:15;;;;;;;1.15;1.00;;;;;;;;;;5059353;28;20504;-66
2023/12/27 02:48:42;;;;;;;0.70;0.70;;;;;;;;;;5059909;28;20284;-66
2023/12/27 02:51:10;;;;;;;1.27;0.85;;;;;;;;;;5059516;28;20535;-66
2023/12/27 02:53:37;;;;;;;1.45;0.80;;;;;;;;;;5060169;28;20328;-66
2023/12/27 02:56:04;;;;;;;1.00;0.80;;;;;;;;;;5059846;28;20670;-66
2023/12/27 02:58:32;;;;;;;1.45;1.00;;;;;;;;;;5059047;28;20237;-66
2023/12/27 03:01:01;;;;;;;1.67;0.90;;;;;;;;;;5060147;28;20232;-66
2023/12/27 03:03:28;;;;;;;0.90;0.80;;;;;;;;;;5059969;28;20205;-66
2023/12/27 03:05:55;;;;;;;1.25;0.95;;;;;;;;;;5059093;28;20653;-66
2023/12/27 03:08:23;;;;;;;0.98;0.80;;;;;;;;;;5060285;28;20204;-66
2023/12/27 03:10:50;;;;;;;1.25;0.80;;;;;;;;;;5059942;28;20271;-66
2023/12/27 03:13:18;;;;;;;0.88;0.88;;;;;;;;;;5058791;28;20640;-67
2023/12/27 03:15:46;;;;;;;1.00;0.90;;;;;;;;;;5058967;28;20292;-66
2023/12/27 03:18:15;;;;;;;1.00;0.80;;;;;;;;;;5059109;28;20259;-66
2023/12/27 03:20:42;;;;;;;0.93;0.80;;;;;;;;;;5059278;28;20475;-66
2023/12/27 03:23:09;;;;;;;1.77;1.10;;;;;;;;;;5059363;28;20271;-66
2023/12/27 03:25:36;;;;;;;0.90;0.90;;;;;;;;;;5059169;28;20244;-66
2023/12/27 03:28:04;;;;;;;0.70;0.70;;;;;;;;;;5058980;28;20621;-66
2023/12/27 03:30:31;;;;;;;1.10;1.00;;;;;;;;;;5059130;28;20217;-66
2023/12/27 03:32:59;;;;;;;0.90;0.90;;;;;;;;;;5058960;28;20205;-66
2023/12/27 03:35:28;;;;;;;0.95;0.82;;;;;;;;;;5058377;28;20236;-66
2023/12/27 03:37:55;;;;;;;0.93;0.93;;;;;;;;;;5058878;28;20574;-66
2023/12/27 03:40:23;;;;;;;0.75;0.75;;;;;;;;;;5058886;28;20212;-67
2023/12/27 03:42:51;;;;;;;0.80;0.77;;;;;;;;;;5058882;28;20653;-66
2023/12/27 03:45:18;;;;;;;0.98;0.80;;;;;;;;;;5058640;28;20227;-66
2023/12/27 03:47:46;;;;;;;1.05;0.70;;;;;;;;;;5058770;28;20224;-66
2023/12/27 03:50:13;;;;;;;1.02;0.80;;;;;;;;;;5058563;28;20248;-66
2023/12/27 03:52:44;;;;;;;0.82;0.82;;;;;;;;;;5058559;28;20259;-66
2023/12/27 03:55:12;;;;;;;1.23;0.93;;;;;;;;;;5058564;28;20240;-66
2023/12/27 03:57:39;;;;;;;2.83;0.90;;;;;;;;;;5058123;28;20271;-66
2023/12/27 04:00:10;;;;;;;1.25;0.85;;;;;;;;;;5058286;28;20309;-66
2023/12/27 04:02:37;;;;;;;1.00;0.90;;;;;;;;;;5058550;28;20219;-67
2023/12/27 04:05:05;;;;;;;0.80;0.80;;;;;;;;;;5057978;28;20587;-66
2023/12/27 04:07:32;;;;;;;1.35;0.90;;;;;;;;;;5058010;28;20279;-66
2023/12/27 04:10:03;;;;;;;0.80;0.80;;;;;;;;;;5058792;28;20239;-66
2023/12/27 04:12:30;;;;;;;2.53;1.00;;;;;;;;;;5058383;28;20225;-66
2023/12/27 04:14:57;;;;;;;0.73;0.73;;;;;;;;;;5058488;28;20229;-66
2023/12/27 04:17:25;;;;;;;1.00;0.90;;;;;;;;;;5058101;28;20215;-66
2023/12/27 04:19:53;;;;;;;0.85;0.85;;;;;;;;;;5057869;28;20216;-66
2023/12/27 04:22:21;;;;;;;1.10;1.00;;;;;;;;;;5058207;28;20212;-66
2023/12/27 04:24:49;;;;;;;1.27;0.80;;;;;;;;;;5057820;28;20201;-66
2023/12/27 04:27:17;;;;;;;1.42;0.80;;;;;;;;;;5057354;28;20283;-67
2023/12/27 04:29:45;;;;;;;0.80;0.80;;;;;;;;;;5057827;28;20288;-66
2023/12/27 04:32:12;;;;;;;1.15;0.90;;;;;;;;;;5057794;28;20216;-66
2023/12/27 04:34:40;;;;;;;1.17;0.93;;;;;;;;;;5058117;28;20319;-66
2023/12/27 04:37:07;;;;;;;0.82;0.80;;;;;;;;;;5057784;28;20236;-66
2023/12/27 04:39:35;;;;;;;0.90;0.90;;;;;;;;;;5057673;28;20304;-66
2023/12/27 04:42:02;;;;;;;1.00;0.82;;;;;;;;;;5057739;28;20312;-66
2023/12/27 04:44:31;;;;;;;0.73;0.73;;;;;;;;;;5057839;28;20201;-66
2023/12/27 04:46:59;;;;;;;1.38;1.00;;;;;;;;;;5057224;28;20204;-66
2023/12/27 04:49:26;;;;;;;1.10;1.00;;;;;;;;;;5057938;28;20521;-66
2023/12/27 04:51:53;;;;;;;0.90;0.90;;;;;;;;;;5057847;28;20205;-66
2023/12/27 04:54:21;;;;;;;1.42;0.95;;;;;;;;;;5057634;28;20228;-67
2023/12/27 04:56:48;;;;;;;1.00;0.88;;;;;;;;;;5057690;28;20216;-66
2023/12/27 04:59:15;;;;;;;2.30;0.90;;;;;;;;;;5057512;28;20611;-66
2023/12/27 05:01:44;;;;;;;0.80;0.80;;;;;;;;;;5057473;28;20271;-66
2023/12/27 05:04:12;;;;;;;1.05;0.90;;;;;;;;;;5057475;28;20215;-66
2023/12/27 05:06:40;;;;;;;0.98;0.80;;;;;;;;;;5057104;28;20252;-66
2023/12/27 05:09:07;;;;;;;1.33;0.93;;;;;;;;;;5057116;28;20558;-66
2023/12/27 05:11:34;;;;;;;0.90;0.90;;;;;;;;;;5058009;28;20300;-66
2023/12/27 05:14:02;;;;;;;0.77;0.77;;;;;;;;;;5057339;28;20260;-66
2023/12/27 05:16:29;;;;;;;0.70;0.70;;;;;;;;;;5057330;28;20215;-66
2023/12/27 05:18:58;;;;;;;0.70;0.70;;;;;;;;;;5056585;28;20565;-66
2023/12/27 05:21:26;;;;;;;1.00;0.90;;;;;;;;;;5057324;28;20467;-66
2023/12/27 05:23:53;;;;;;;0.80;0.80;;;;;;;;;;5057204;28;20240;-66
2023/12/27 05:26:21;;;;;;;1.23;0.88;;;;;;;;;;5056695;28;20236;-66
2023/12/27 05:28:48;;;;;;;0.70;0.70;;;;;;;;;;5056753;28;20212;-66
2023/12/27 05:31:16;;;;;;;0.90;0.77;;;;;;;;;;5056444;28;20312;-69
2023/12/27 05:33:43;;;;;;;0.90;0.90;;;;;;;;;;5056647;28;20205;-67
2023/12/27 05:36:12;;;;;;;1.70;0.80;;;;;;;;;;5057248;28;20205;-68
2023/12/27 05:38:40;;;;;;;4.40;1.17;;;;;;;;;;5056851;28;20290;-66
2023/12/27 05:41:08;;;;;;;5.32;1.42;;;;;;;;;;5056424;28;20252;-66
2023/12/27 05:43:35;;;;;;;1.98;1.20;;;;;;;;;;5056287;28;20219;-66
2023/12/27 05:46:03;;;;;;;2.65;1.10;;;;;;;;;;5056407;28;20205;-66
2023/12/27 05:48:30;;;;;;;2.70;0.90;;;;;;;;;;5056979;28;20327;-67
2023/12/27 05:50:58;;;;;;;3.45;1.10;;;;;;;;;;5057114;28;20217;-68
2023/12/27 05:53:28;;;;;;;4.00;1.25;;;;;;;;;;5056763;28;20291;-66
2023/12/27 05:55:56;;;;;;;2.28;0.90;;;;;;;;;;5057059;28;20236;-66
2023/12/27 05:58:23;;;;;;;2.28;1.20;;;;;;;;;;5058491;28;20271;-66
2023/12/27 06:00:51;;;;;;;2.03;0.90;;;;;;;;;;5060122;28;20215;-66
2023/12/27 06:03:18;;;;;;;1.60;0.90;;;;;;;;;;5059461;28;20240;-67
2023/12/27 06:05:46;;;;;;;5.97;1.30;;;;;;;;;;5059867;28;20200;-66
2023/12/27 06:08:15;;;;;;;1.83;1.00;;;;;;;;;;5059746;28;20204;-66
2023/12/27 06:10:45;;;;;;;2.25;0.98;;;;;;;;;;5059892;28;20603;-66
2023/12/27 06:13:12;;;;;;;1.42;1.02;;;;;;;;;;5059755;28;20215;-66
2023/12/27 06:15:40;;;;;;;2.08;1.17;;;;;;;;;;5059879;28;20713;-66
2023/12/27 06:18:07;;;;;;;1.85;1.08;;;;;;;;;;5059694;28;20211;-66
2023/12/27 06:20:34;;;;;;;2.53;1.50;;;;;;;;;;5059685;28;20311;-66
2023/12/27 06:23:02;;;;;;;1.30;0.80;;;;;;;;;;5060021;28;20211;-66
2023/12/27 06:25:30;;;;;;;0.93;0.93;;;;;;;;;;5059973;28;20252;-66
2023/12/27 06:27:59;;;;;;;1.90;1.17;;;;;;;;;;5060011;28;20579;-66
2023/12/27 06:30:27;;;;;;;1.77;1.00;;;;;;;;;;5060233;28;20270;-66
2023/12/27 06:32:55;;;;;;;2.33;1.10;;;;;;;;;;5059850;28;20216;-66
2023/12/27 06:35:22;;;;;;;1.60;1.15;;;;;;;;;;5059872;28;20474;-66
2023/12/27 06:37:50;;;;;;;2.13;1.15;;;;;;;;;;5059526;28;20205;-66
2023/12/27 06:40:17;;;;;;;1.85;1.20;;;;;;;;;;5059017;28;20229;-66
2023/12/27 06:42:45;;;;;;;1.23;1.02;;;;;;;;;;5059451;28;20624;-66
2023/12/27 06:45:14;;;;;;;1.45;1.13;;;;;;;;;;5059841;28;20209;-66
2023/12/27 06:47:41;;;;;;;1.42;1.05;;;;;;;;;;5059058;28;20492;-66
2023/12/27 06:50:09;;;;;;;1.80;1.00;;;;;;;;;;5059217;28;20236;-66
2023/12/27 06:52:37;;;;;;;2.28;0.93;;;;;;;;;;5059376;28;20208;-66
2023/12/27 06:55:05;;;;;;;1.27;1.08;;;;;;;;;;5058610;28;20315;-66
2023/12/27 06:57:32;;;;;;;1.45;1.00;;;;;;;;;;5058970;28;20240;-66
2023/12/27 06:59:59;;;;;;;1.25;1.10;;;;;;;;;;5058908;28;20237;-66
2023/12/27 07:02:29;;;;;;;2.30;1.30;;;;;;;;;;5059049;28;20217;-66
2023/12/27 07:04:58;;;;;;;2.22;1.02;;;;;;;;;;5059392;28;20201;-66
2023/12/27 07:07:26;;;;;;;1.50;1.10;;;;;;;;;;5058815;28;20204;-66
2023/12/27 07:09:54;;;;;;;1.58;1.17;;;;;;;;;;5059081;28;20314;-66
2023/12/27 07:12:22;;;;;;;1.92;1.30;;;;;;;;;;5058297;28;20204;-66
2023/12/27 07:14:50;;;;;;;1.20;1.10;;;;;;;;;;5058315;28;20229;-66
2023/12/27 07:17:20;;;;;;;1.10;1.00;;;;;;;;;;5059353;28;20252;-66
2023/12/27 07:19:49;;;;;;;1.75;1.35;;;;;;;;;;5058448;28;20213;-66
2023/12/27 07:22:16;;;;;;;1.55;0.90;;;;;;;;;;5058368;28;20246;-66
2023/12/27 07:24:44;;;;;;;1.58;1.27;;;;;;;;;;5058606;28;20208;-66
2023/12/27 07:27:11;;;;;;;1.75;1.20;;;;;;;;;;5058518;28;20551;-66
2023/12/27 07:29:38;;;;;;;1.20;1.00;;;;;;;;;;5058063;28;20292;-66
2023/12/27 07:32:07;;;;;;;1.65;1.05;;;;;;;;;;5058085;28;20274;-67
2023/12/27 07:34:35;;;;;;;2.72;1.02;;;;;;;;;;5057275;28;20319;-66
2023/12/27 07:37:04;;;;;;;1.60;1.13;;;;;;;;;;5058328;28;20201;-66
2023/12/27 07:39:33;;;;;;;1.70;1.10;;;;;;;;;;5057306;28;20216;-67
2023/12/27 07:42:01;;;;;;;1.80;1.10;;;;;;;;;;5057889;28;20213;-66
2023/12/27 07:44:28;;;;;;;2.60;1.33;;;;;;;;;;5057731;28;20203;-66
2023/12/27 07:46:56;;;;;;;1.35;1.20;;;;;;;;;;5057969;28;20216;-68
2023/12/27 07:49:23;;;;;;;1.17;1.08;;;;;;;;;;5057816;28;20262;-66
2023/12/27 07:51:51;;;;;;;1.88;1.27;;;;;;;;;;5057148;28;20224;-67
2023/12/27 07:54:20;;;;;;;1.63;1.20;;;;;;;;;;5058068;28;20205;-67
2023/12/27 07:56:47;;;;;;;1.60;1.17;;;;;;;;;;5058118;28;20223;-67
2023/12/27 07:59:14;;;;;;;1.40;1.10;;;;;;;;;;5057560;28;20319;-67
2023/12/27 08:01:42;;;;;;;1.40;1.10;;;;;;;;;;5057778;28;20245;-66
2023/12/27 08:04:10;;;;;;;2.30;1.20;;;;;;;;;;5057603;28;20240;-66
2023/12/27 08:06:37;;;;;;;2.17;0.93;;;;;;;;;;5057117;28;20205;-66
2023/12/27 08:09:04;;;;;;;1.27;1.00;;;;;;;;;;5056841;28;20583;-66
2023/12/27 08:11:34;;;;;;;1.33;1.00;;;;;;;;;;5057538;28;20288;-67
2023/12/27 08:14:01;;;;;;;1.20;1.05;;;;;;;;;;5057453;28;20205;-67
2023/12/27 08:16:28;;;;;;;2.08;1.10;;;;;;;;;;5057412;28;20236;-67
2023/12/27 08:18:56;;;;;;;1.58;1.10;;;;;;;;;;5057860;28;20474;-67
2023/12/27 08:21:23;;;;;;;1.23;1.13;;;;;;;;;;5056745;28;20205;-66
2023/12/27 08:23:51;;;;;;;1.52;1.02;;;;;;;;;;5057014;28;20303;-67
2023/12/27 08:26:19;;;;;;;1.45;1.10;;;;;;;;;;5057118;28;20555;-67
2023/12/27 08:28:48;;;;;;;1.70;1.08;;;;;;;;;;5056848;28;20248;-67
2023/12/27 08:31:16;;;;;;;1.30;1.20;;;;;;;;;;5057100;28;20591;-67
2023/12/27 08:33:48;;;;;;;1.67;1.20;;;;;;;;;;5057091;28;20243;-67
2023/12/27 08:36:15;;;;;;;1.30;1.20;;;;;;;;;;5056627;28;20241;-66
2023/12/27 08:38:44;;;;;;;1.95;1.10;;;;;;;;;;5057267;28;20228;-67
2023/12/27 08:41:11;;;;;;;1.15;1.05;;;;;;;;;;5057440;28;20205;-67
2023/12/27 08:43:39;;;;;;;1.80;1.20;;;;;;;;;;5057223;28;20596;-66
2023/12/27 08:46:10;;;;;;;1.80;1.30;;;;;;;;;;5056738;28;20197;-67
2023/12/27 08:48:38;;;;;;;1.35;1.25;;;;;;;;;;5056247;28;20239;-67
2023/12/27 08:51:05;;;;;;;1.65;1.27;;;;;;;;;;5056529;28;20204;-66
2023/12/27 08:53:33;;;;;;;1.40;1.30;;;;;;;;;;5056418;28;20243;-67
2023/12/27 08:56:01;;;;;;;1.20;1.10;;;;;;;;;;5055881;28;20228;-66
2023/12/27 08:58:28;;;;;;;1.85;1.20;;;;;;;;;;5055388;28;20656;-66
2023/12/27 09:00:58;;;;;;;1.35;1.25;;;;;;;;;;5056284;28;20223;-67
2023/12/27 09:03:27;;;;;;;1.90;1.30;;;;;;;;;;5056075;28;20208;-67
2023/12/27 09:05:55;;;;;;;2.33;1.58;;;;;;;;;;5055539;28;20674;-67
2023/12/27 09:08:22;;;;;;;2.22;1.15;;;;;;;;;;5055334;28;20224;-67
2023/12/27 09:10:49;;;;;;;1.48;1.23;;;;;;;;;;5055245;28;20312;-67
2023/12/27 09:13:17;;;;;;;1.60;1.50;;;;;;;;;;5056253;28;20215;-66
2023/12/27 09:15:44;;;;;;;1.23;1.13;;;;;;;;;;5056227;28;20239;-66
2023/12/27 09:18:11;;;;;;;1.20;1.10;;;;;;;;;;5056978;28;20300;-66
2023/12/27 09:20:40;;;;;;;1.30;1.17;;;;;;;;;;5056802;28;20565;-67
2023/12/27 09:23:08;;;;;;;1.50;1.40;;;;;;;;;;5056073;28;20205;-67
2023/12/27 09:25:36;;;;;;;1.50;1.40;;;;;;;;;;5055315;28;20686;-67
2023/12/27 09:28:03;;;;;;;1.90;1.55;;;;;;;;;;5056547;28;20197;-66
2023/12/27 09:30:31;;;;;;;1.58;1.30;;;;;;;;;;5056580;28;20201;-67
2023/12/27 09:32:58;;;;;;;1.42;1.33;;;;;;;;;;5057616;28;20197;-67
2023/12/27 09:35:26;;;;;;;2.03;1.38;;;;;;;;;;5059730;28;20236;-67
2023/12/27 09:37:55;;;;;;;1.42;1.20;;;;;;;;;;5060055;28;20213;-68
2023/12/27 09:40:22;;;;;;;1.73;1.35;;;;;;;;;;5059375;28;20197;-66
2023/12/27 09:42:50;;;;;;;1.55;1.40;;;;;;;;;;5058555;28;20240;-67
2023/12/27 09:45:18;;;;;;;1.30;1.20;;;;;;;;;;5058878;28;20296;-66
2023/12/27 09:47:46;;;;;;;1.77;1.50;;;;;;;;;;5058334;28;20200;-66
2023/12/27 09:50:13;;;;;;;2.97;1.55;;;;;;;;;;5058499;28;20537;-66
2023/12/27 09:52:42;;;;;;;1.50;1.27;;;;;;;;;;5058808;28;20205;-67
2023/12/27 09:55:11;;;;;;;1.50;1.40;;;;;;;;;;5058515;28;20229;-67
2023/12/27 09:57:39;;;;;;;1.63;1.52;;;;;;;;;;5058946;28;20244;-67
2023/12/27 10:00:07;;;;;;;1.52;1.42;;;;;;;;;;5058721;28;20247;-66
2023/12/27 10:02:36;;;;;;;1.42;1.33;;;;;;;;;;5058034;28;20279;-67
2023/12/27 10:05:07;;;;;;;1.77;1.50;;;;;;;;;;5058452;28;20271;-66
2023/12/27 10:07:39;;;;;;;1.50;1.40;;;;;;;;;;5058033;28;20307;-66
2023/12/27 10:10:07;;;;;;;2.13;1.25;;;;;;;;;;5058044;28;20215;-66
2023/12/27 10:12:36;;;;;;;1.60;1.50;;;;;;;;;;5057402;28;20244;-66
2023/12/27 10:15:04;;;;;;;1.50;1.40;;;;;;;;;;5058207;28;20610;-66
2023/12/27 10:17:32;;;;;;;1.55;1.45;;;;;;;;;;5058820;28;20204;-66
2023/12/27 10:19:59;;;;;;;1.40;1.30;;;;;;;;;;5058632;28;20495;-66
2023/12/27 10:22:28;;;;;;;1.75;1.50;;;;;;;;;;5058321;28;20642;-68
2023/12/27 10:24:55;;;;;;;1.77;1.40;;;;;;;;;;5057921;28;20597;-66
2023/12/27 10:27:23;;;;;;;1.30;1.20;;;;;;;;;;5057299;28;20252;-68
2023/12/27 10:29:52;;;;;;;1.35;1.25;;;;;;;;;;5058065;28;20215;-66
2023/12/27 10:32:19;;;;;;;1.30;1.20;;;;;;;;;;5057869;28;20205;-67
2023/12/27 10:34:47;;;;;;;1.30;1.20;;;;;;;;;;5057607;28;20740;-67
2023/12/27 10:37:14;;;;;;;1.50;1.30;;;;;;;;;;5056770;28;20268;-67
2023/12/27 10:39:45;;;;;;;1.30;1.20;;;;;;;;;;5057686;28;20282;-67
2023/12/27 10:42:16;;;;;;;1.40;1.27;;;;;;;;;;5057309;28;20271;-67
2023/12/27 10:44:45;;;;;;;1.40;1.30;;;;;;;;;;5056009;28;20205;-68
2023/12/27 10:47:17;;;;;;;1.60;1.50;;;;;;;;;;5058698;28;20462;-66
2023/12/27 10:49:47;;;;;;;1.95;1.40;;;;;;;;;;5057551;28;20282;-66
2023/12/27 10:52:15;;;;;;;1.70;1.35;;;;;;;;;;5056275;28;20209;-67
2023/12/27 10:54:45;;;;;;;1.25;1.15;;;;;;;;;;5056350;28;20205;-68
2023/12/27 10:57:16;;;;;;;1.50;1.40;;;;;;;;;;5056936;28;20268;-66
2023/12/27 10:59:47;;;;;;;1.85;1.40;;;;;;;;;;5056528;28;20249;-66
2023/12/27 11:02:17;;;;;;;1.30;1.20;;;;;;;;;;5056799;28;20700;-66
2023/12/27 11:04:44;;;;;;;1.85;1.60;;;;;;;;;;5055178;28;20292;-67
2023/12/27 11:07:13;;;;;;;1.73;1.40;;;;;;;;;;5056334;28;20606;-66
2023/12/27 11:09:42;;;;;;;1.35;1.25;;;;;;;;;;5056868;28;20213;-66
2023/12/27 11:12:10;;;;;;;1.27;1.17;;;;;;;;;;5057416;28;20201;-66
2023/12/27 11:14:38;;;;;;;1.35;1.23;;;;;;;;;;5056613;28;20209;-68
2023/12/27 11:17:07;;;;;;;1.48;1.38;;;;;;;;;;5056031;28;20283;-67
2023/12/27 11:19:37;;;;;;;2.13;1.33;;;;;;;;;;5056301;28;20236;-67
2023/12/27 11:22:05;;;;;;;1.33;1.23;;;;;;;;;;5055975;28;20205;-67
2023/12/27 11:24:32;;;;;;;1.50;1.40;;;;;;;;;;5055484;28;20220;-67
2023/12/27 11:27:00;;;;;;;1.40;1.30;;;;;;;;;;5056778;28;20270;-67
2023/12/27 11:29:29;;;;;;;1.67;1.00;;;;;;;;;;5055887;28;20240;-67
2023/12/27 11:31:57;;;;;;;1.65;1.20;;;;;;;;;;5055505;28;20248;-66
2023/12/27 11:34:24;;;;;;;1.30;1.20;;;;;;;;;;5056557;28;20205;-67
2023/12/27 11:36:53;;;;;;;1.88;1.17;;;;;;;;;;5056209;28;20251;-67
2023/12/27 11:39:21;;;;;;;1.40;1.30;;;;;;;;;;5056656;28;20220;-67
2023/12/27 11:41:49;;;;;;;1.38;1.20;;;;;;;;;;5056290;28;20205;-67
2023/12/27 11:44:17;;;;;;;1.45;1.27;;;;;;;;;;5056959;28;20201;-66
2023/12/27 11:46:44;;;;;;;1.38;1.27;;;;;;;;;;5056057;28;20209;-68
2023/12/27 11:49:20;;;;;;;1.48;1.30;;;;;;;;;;5056166;28;20247;-66
2023/12/27 11:51:47;;;;;;;1.08;0.98;;;;;;;;;;5056100;28;20204;-66
2023/12/27 11:54:23;;;;;;;1.45;1.35;;;;;;;;;;5056398;28;20209;-66
2023/12/27 11:56:50;;;;;;;1.20;1.10;;;;;;;;;;5055099;28;20256;-66
2023/12/27 11:59:17;;;;;;;1.40;1.30;;;;;;;;;;5055824;28;20683;-66
2023/12/27 12:01:45;;;;;;;1.70;1.20;;;;;;;;;;5055932;28;20594;-66
2023/12/27 12:04:23;;;;;;;1.20;1.10;;;;;;;;;;5056347;28;20232;-66
2023/12/27 12:07:03;;;;;;;1.20;1.10;;;;;;;;;;5055919;28;20212;-67
2023/12/27 12:09:33;;;;;;;1.25;1.15;;;;;;;;;;5056564;28;20236;-67
2023/12/27 12:12:09;;;;;;;1.77;1.15;;;;;;;;;;5056078;28;20204;-66
2023/12/27 12:14:37;;;;;;;1.52;1.38;;;;;;;;;;5056569;28;20853;-67
2023/12/27 12:17:04;;;;;;;1.20;1.10;;;;;;;;;;5056070;28;20235;-67
2023/12/27 12:19:32;;;;;;;1.20;1.10;;;;;;;;;;5055877;28;20220;-66
2023/12/27 12:22:00;;;;;;;1.33;1.02;;;;;;;;;;5056102;28;20205;-67
2023/12/27 12:24:28;;;;;;;1.25;1.05;;;;;;;;;;5056087;28;20205;-67
2023/12/27 12:26:57;;;;;;;1.08;0.93;;;;;;;;;;5056351;28;20228;-67
2023/12/27 12:29:25;;;;;;;1.30;1.20;;;;;;;;;;5055361;28;20201;-67
2023/12/27 12:31:54;;;;;;;1.02;0.93;;;;;;;;;;5055689;28;20201;-67
2023/12/27 12:34:21;;;;;;;1.30;1.20;;;;;;;;;;5055649;28;20207;-67
2023/12/27 12:36:48;;;;;;;1.10;1.00;;;;;;;;;;5055162;28;20221;-67
2023/12/27 12:39:16;;;;;;;0.80;0.80;;;;;;;;;;5055023;28;20220;-67
2023/12/27 12:41:44;;;;;;;1.35;1.05;;;;;;;;;;5054459;28;20392;-67
2023/12/27 12:44:13;;;;;;;1.20;1.10;;;;;;;;;;5055277;28;20197;-67
2023/12/27 12:46:41;;;;;;;1.27;1.10;;;;;;;;;;5054623;28;20467;-67
2023/12/27 12:49:08;;;;;;;1.40;1.30;;;;;;;;;;5054419;28;20201;-67
2023/12/27 12:51:36;;;;;;;1.27;1.17;;;;;;;;;;5054768;28;20209;-67
2023/12/27 12:54:04;;;;;;;1.35;1.10;;;;;;;;;;5054959;28;20201;-68
2023/12/27 12:56:31;;;;;;;1.30;1.20;;;;;;;;;;5055298;28;20229;-67
2023/12/27 12:58:59;;;;;;;1.20;1.10;;;;;;;;;;5048147;28;20642;-67
2023/12/27 13:01:28;;;;;;;1.55;1.10;;;;;;;;;;5035358;28;20206;-67
2023/12/27 13:03:57;;;;;;;1.10;1.00;;;;;;;;;;5035196;28;20220;-67
2023/12/27 13:06:25;;;;;;;1.10;1.00;;;;;;;;;;5035689;28;20205;-66
2023/12/27 13:08:54;;;;;;;1.65;1.10;;;;;;;;;;5039524;28;20216;-67
2023/12/27 13:11:23;;;;;;;1.38;1.15;;;;;;;;;;5038794;28;20630;-66
2023/12/27 13:13:51;;;;;;;1.73;1.35;;;;;;;;;;5039643;28;20205;-67
2023/12/27 13:16:18;;;;;;;1.08;0.98;;;;;;;;;;5039415;28;20236;-67
2023/12/27 13:18:47;;;;;;;1.30;1.20;;;;;;;;;;5038604;28;20225;-67
2023/12/27 13:21:15;;;;;;;1.20;1.10;;;;;;;;;;5038151;28;20198;-67
2023/12/27 13:23:42;;;;;;;1.65;1.10;;;;;;;;;;5038549;28;20505;-67
2023/12/27 13:26:12;;;;;;;1.10;1.00;;;;;;;;;;5039238;28;20209;-67
2023/12/27 13:28:40;;;;;;;1.30;1.10;;;;;;;;;;5038880;28;20214;-67
2023/12/27 13:31:07;;;;;;;1.00;0.90;;;;;;;;;;5038656;28;20205;-67
2023/12/27 13:33:34;;;;;;;2.38;1.00;;;;;;;;;;5038993;28;20593;-67
2023/12/27 13:36:03;;;;;;;1.05;0.90;;;;;;;;;;5038606;28;20198;-67
2023/12/27 13:38:31;;;;;;;1.02;1.02;;;;;;;;;;5038252;28;20205;-67
2023/12/27 13:40:59;;;;;;;1.17;0.93;;;;;;;;;;5038480;28;20622;-67
2023/12/27 13:43:26;;;;;;;1.20;1.10;;;;;;;;;;5038610;28;20217;-67
2023/12/27 13:45:54;;;;;;;1.10;1.00;;;;;;;;;;5038437;28;20213;-67
2023/12/27 13:48:21;;;;;;;1.48;1.20;;;;;;;;;;5037540;28;20202;-67
2023/12/27 13:50:48;;;;;;;1.15;1.05;;;;;;;;;;5037462;28;20216;-67
2023/12/27 13:53:17;;;;;;;1.20;1.10;;;;;;;;;;5037721;28;20206;-67
2023/12/27 13:55:44;;;;;;;1.15;1.00;;;;;;;;;;5037966;28;20501;-67
2023/12/27 13:58:12;;;;;;;1.25;1.00;;;;;;;;;;5038021;28;20225;-67
2023/12/27 14:00:39;;;;;;;1.02;0.93;;;;;;;;;;5037566;28;20268;-67
2023/12/27 14:03:09;;;;;;;1.10;1.00;;;;;;;;;;5037079;28;20213;-67
2023/12/27 14:05:38;;;;;;;1.48;1.30;;;;;;;;;;5037585;28;20202;-67
2023/12/27 14:08:06;;;;;;;1.17;0.90;;;;;;;;;;5036249;28;20495;-67
2023/12/27 14:10:35;;;;;;;1.05;0.90;;;;;;;;;;5036646;28;20237;-67
2023/12/27 14:13:02;;;;;;;0.85;0.85;;;;;;;;;;5037569;28;20296;-67
2023/12/27 14:15:30;;;;;;;1.15;1.00;;;;;;;;;;5037493;28;20210;-67
2023/12/27 14:17:57;;;;;;;1.35;0.90;;;;;;;;;;5037002;28;20537;-67
2023/12/27 14:20:25;;;;;;;1.00;0.80;;;;;;;;;;5038250;28;20269;-67
2023/12/27 14:22:52;;;;;;;0.93;0.90;;;;;;;;;;5038036;28;20237;-67
2023/12/27 14:25:19;;;;;;;1.33;1.00;;;;;;;;;;5037093;28;20212;-67
2023/12/27 14:27:48;;;;;;;1.20;1.10;;;;;;;;;;5037676;28;20218;-67
2023/12/27 14:30:16;;;;;;;0.90;0.90;;;;;;;;;;5038263;28;20584;-67
2023/12/27 14:32:44;;;;;;;1.00;0.90;;;;;;;;;;5037631;28;20658;-68
2023/12/27 14:35:11;;;;;;;1.30;1.20;;;;;;;;;;5037107;28;20623;-67
2023/12/27 14:37:40;;;;;;;1.10;1.00;;;;;;;;;;5038205;28;20230;-67
2023/12/27 14:40:08;;;;;;;1.02;0.95;;;;;;;;;;5037326;28;20498;-67
2023/12/27 14:42:36;;;;;;;1.13;1.00;;;;;;;;;;5036131;28;20214;-67
2023/12/27 14:45:05;;;;;;;0.95;0.95;;;;;;;;;;5038125;28;20216;-67
2023/12/27 14:47:32;;;;;;;0.80;0.80;;;;;;;;;;5037841;28;20252;-67